Latest Weather Observations for Kapooka (Defence)

IDN60801

Issued at 11:02 am EST Tuesday 19 June 2018 (issued every 10 minutes, with the page automatically refreshed every 10 minutes)

About weather observations | Map of weather stations | Latest weather observations for NSW | Other Formats
Station Details ID: 074272 Name: KAPOOKA (DEFENCE) Lat: -35.13 Lon: 147.25 Height: 187.0 m
Data from the previous 72 hours. | See also: Recent months at Kapooka (Defence)
Date/Time
EST
Temp
°C
App
Temp
°C
Dew
Point
°C
Rel
Hum
%
Delta-T
°C
Wind Press
QNH
hPa
Press
MSL
hPa
Rain since
9am
mm
Dir  Spd
km/h
Gust
km/h
Spd
kts
Gust
kts
19/11:00am 10.1 7.8 4.9 70 2.4 S 6 7 3 4 - - 0.0
19/10:30am 9.2 7.7 4.8 74 2.0 NW 2 4 1 2 - - 0.0
19/10:00am 7.8 6.5 4.0 77 1.7 CALM 0 4 0 2 - - 0.0
19/09:30am 5.8 4.4 3.6 86 0.9 CALM 0 4 0 2 - - 0.0
19/09:00am 4.2 2.7 2.9 91 0.5 CALM 0 0 0 0 - - 0.0
19/08:30am 2.4 0.7 2.1 98 0.1 CALM 0 0 0 0 - - 0.0
19/08:00am 0.5 -2.2 0.2 98 0.1 E 4 7 2 4 - - 0.0
19/07:30am 0.4 -2.7 0.1 98 0.1 ENE 6 7 3 4 - - 0.0
19/07:00am 0.3 -2.4 0.0 98 0.1 ENE 4 7 2 4 - - 0.0
19/06:30am 0.5 -1.8 0.2 98 0.1 NNE 2 4 1 2 - - 0.0
19/06:00am -0.2 -2.7 -0.9 95 0.2 W 2 4 1 2 - - 0.0
19/05:30am 0.8 -1.5 0.4 97 0.1 E 2 7 1 4 - - 0.0
19/05:00am 0.3 -1.7 -0.1 97 0.1 CALM 0 0 0 0 - - 0.0
19/04:30am 0.9 -1.4 0.6 98 0.1 NE 2 6 1 3 - - 0.0
19/04:00am 0.9 -1.4 0.2 95 0.3 NNW 2 7 1 4 - - 0.0
19/03:30am 1.2 -0.8 -0.1 91 0.5 CALM 0 0 0 0 - - 0.0
19/03:00am 2.8 -0.8 0.9 87 0.7 SSE 9 11 5 6 - - 0.0
19/02:30am 3.6 -0.1 2.4 92 0.5 S 11 13 6 7 - - 0.0
19/02:00am 2.5 0.7 1.2 91 0.5 CALM 0 2 0 1 - - 0.0
19/01:30am 3.2 -0.2 1.9 91 0.5 S 9 11 5 6 - - 0.0
19/01:00am 3.0 0.2 1.8 92 0.5 SSW 6 7 3 4 - - 0.0
19/12:30am 3.5 0.2 2.5 93 0.4 S 9 9 5 5 - - 0.0
19/12:00am 4.3 1.6 3.7 96 0.3 S 7 9 4 5 - - 0.0
 
Date/Time
EST
Temp
°C
App
Temp
°C
Dew
Point
°C
Rel
Hum
%
Delta-T
°C
Wind Press
QNH
hPa
Press
MSL
hPa
Rain since
9am
mm
Dir  Spd
km/h
Gust
km/h
Spd
kts
Gust
kts
18/11:30pm 3.5 1.6 3.1 97 0.2 N 2 4 1 2 - - 0.0
18/11:00pm 4.2 1.5 3.8 97 0.2 SSE 7 9 4 5 - - 0.0
18/10:30pm 4.0 1.8 3.1 94 0.4 S 4 6 2 3 - - 0.0
18/10:00pm 5.3 2.7 4.3 93 0.4 S 7 7 4 4 - - 0.0
18/09:30pm 5.9 3.0 4.7 92 0.5 SSE 9 9 5 5 - - 0.0
18/09:00pm 5.8 2.9 4.4 91 0.6 S 9 11 5 6 - - 0.0
18/08:30pm 6.9 4.0 4.9 87 0.9 SSE 9 11 5 6 - - 0.0
18/08:00pm 9.0 6.3 5.7 80 1.5 SSW 9 13 5 7 - - 0.0
18/07:30pm 9.5 6.7 5.3 75 1.9 SSW 9 15 5 8 - - 0.0
18/07:00pm 9.2 6.7 4.6 73 2.1 SSW 7 13 4 7 - - 0.0
18/06:30pm 9.9 7.2 5.7 75 1.9 SSW 9 13 5 7 - - 0.0
18/06:00pm 11.1 7.3 6.0 71 2.4 SSW 15 20 8 11 - - 0.0
18/05:30pm 10.1 7.5 5.9 75 2.0 SSW 9 11 5 6 - - 0.0
18/05:00pm 11.1 9.0 6.5 73 2.2 SSW 7 11 4 6 - - 0.0
18/04:30pm 12.4 9.8 6.2 66 3.0 SSW 9 13 5 7 - - 0.0
18/04:00pm 13.1 9.9 6.9 66 3.0 SW 13 19 7 10 - - 0.0
18/03:30pm 13.3 9.9 5.9 61 3.5 SW 13 19 7 10 - - 0.0
18/03:00pm 13.6 9.9 6.5 62 3.4 SW 15 20 8 11 - - 0.0
18/02:30pm 13.4 9.6 5.6 59 3.7 SW 15 20 8 11 - - 0.0
18/02:00pm 13.1 9.6 5.5 60 3.6 SW 13 17 7 9 - - 0.0
18/01:30pm 13.1 9.7 5.8 61 3.5 S 13 20 7 11 - - 0.0
18/01:00pm 12.9 9.2 6.3 64 3.2 SSW 15 20 8 11 - - 0.0
18/12:30pm 12.5 9.3 7.0 69 2.7 SSW 13 17 7 9 - - 0.0
18/12:00pm 11.7 8.7 6.2 69 2.6 SSW 11 17 6 9 - - 0.0
18/11:30am 11.0 7.4 6.6 74 2.1 SSW 15 19 8 10 - - 0.0
18/11:00am 10.1 7.1 6.1 76 1.9 SSW 11 17 6 9 - - 0.0
18/10:30am 8.4 6.7 6.0 85 1.1 S 4 6 2 3 - - 0.0
18/10:00am 7.2 5.0 6.1 93 0.5 SSW 7 11 4 6 - - 0.0
18/09:30am 5.9 3.6 5.5 97 0.2 S 7 9 4 5 - - 0.0
18/09:00am 5.3 4.2 4.9 97 0.2 CALM 0 0 0 0 - - 2.6
18/08:30am 5.5 3.7 5.2 98 0.1 SW 4 6 2 3 - - 2.6
18/08:00am 4.8 2.3 4.7 99 0.0 S 7 7 4 4 - - 2.6
18/07:30am 4.0 1.8 3.6 97 0.2 S 4 7 2 4 - - 2.6
18/07:00am 4.5 1.8 3.9 96 0.3 S 7 9 4 5 - - 2.6
18/06:30am 5.9 3.5 5.3 96 0.3 SSW 7 9 4 5 - - 2.6
18/06:00am 6.1 3.4 5.5 96 0.3 SSW 9 13 5 7 - - 2.6
18/05:30am 6.1 2.2 5.5 96 0.3 S 15 20 8 11 - - 2.6
18/05:00am 6.2 2.7 5.6 96 0.3 SSW 13 22 7 12 - - 2.6
18/04:30am 6.4 3.8 6.0 97 0.2 SSW 9 13 5 7 - - 2.6
18/04:00am 5.9 2.8 5.5 97 0.2 SSW 11 13 6 7 - - 2.6
18/03:30am 5.5 2.8 5.4 99 0.0 SSW 9 13 5 7 - - 2.6
18/03:00am 4.6 2.0 4.2 97 0.2 SSW 7 9 4 5 - - 2.6
18/02:30am 5.4 3.1 5.0 97 0.2 SSW 6 9 3 5 - - 2.6
18/02:00am 6.0 3.3 5.4 96 0.3 SSW 9 13 5 7 - - 2.4
18/01:30am 6.7 3.3 5.8 94 0.4 SW 13 19 7 10 - - 2.4
18/01:00am 7.0 4.0 5.9 93 0.5 SSW 11 17 6 9 - - 2.4
18/12:30am 7.7 4.0 6.3 91 0.6 SSW 15 26 8 14 - - 2.4
18/12:00am 7.9 4.3 6.8 93 0.5 SSW 15 20 8 11 - - 2.4
 
Date/Time
EST
Temp
°C
App
Temp
°C
Dew
Point
°C
Rel
Hum
%
Delta-T
°C
Wind Press
QNH
hPa
Press
MSL
hPa
Rain since
9am
mm
Dir  Spd
km/h
Gust
km/h
Spd
kts
Gust
kts
17/11:30pm 7.8 4.6 6.7 93 0.5 SSW 13 17 7 9 - - 2.4
17/11:00pm 8.1 4.9 6.9 92 0.6 SSW 13 17 7 9 - - 2.4
17/10:30pm 8.2 4.3 7.0 92 0.6 SSW 17 24 9 13 - - 2.4
17/10:00pm 8.2 5.4 7.0 92 0.6 SW 11 17 6 9 - - 2.4
17/09:30pm 8.2 6.2 7.0 92 0.6 SW 7 13 4 7 - - 2.4
17/09:00pm 8.1 6.1 6.9 92 0.6 SW 7 9 4 5 - - 2.4
17/08:30pm 8.7 5.6 7.3 91 0.7 SW 13 19 7 10 - - 2.4
17/08:00pm 8.8 5.7 7.3 90 0.7 SW 13 20 7 11 - - 2.4
17/07:30pm 8.9 5.0 7.2 89 0.8 SW 17 32 9 17 - - 2.4
17/07:00pm 9.2 6.6 7.6 90 0.8 WSW 11 19 6 10 - - 2.4
17/06:30pm 8.9 6.3 7.7 92 0.6 W 11 15 6 8 - - 2.4
17/06:00pm 8.9 6.7 7.7 92 0.6 WSW 9 17 5 9 - - 2.4
17/05:30pm 8.8 6.2 7.7 93 0.5 WSW 11 19 6 10 - - 2.4
17/05:00pm 8.9 5.5 7.5 91 0.7 W 15 24 8 13 - - 2.4
17/04:30pm 8.9 5.9 7.8 93 0.5 W 13 22 7 12 - - 2.4
17/04:00pm 9.2 5.4 7.5 89 0.8 W 17 28 9 15 - - 2.4
17/03:30pm 9.0 5.3 7.9 93 0.5 W 17 33 9 18 - - 2.2
17/03:00pm 8.6 5.2 7.8 95 0.4 W 15 32 8 17 - - 2.2
17/02:30pm 8.5 5.1 7.6 94 0.4 W 15 24 8 13 - - 2.2
17/02:00pm 8.1 5.0 7.3 95 0.4 WNW 13 22 7 12 - - 1.4
17/01:30pm 8.0 4.5 7.1 94 0.4 WNW 15 20 8 11 - - 0.8
17/01:00pm 7.3 3.7 6.6 95 0.3 WNW 15 24 8 13 - - 0.6
17/12:30pm 6.8 3.1 6.4 97 0.2 W 15 28 8 15 - - 0.4
17/12:00pm 6.4 2.6 6.0 97 0.2 WNW 15 24 8 13 - - 0.2
17/11:30am 5.9 1.7 5.5 97 0.2 W 17 26 9 14 - - 0.2
17/11:00am 5.9 1.6 5.3 96 0.3 W 17 26 9 14 - - 0.2
17/10:30am 5.8 1.9 5.2 96 0.3 W 15 24 8 13 - - 0.2
17/10:00am 5.5 0.7 4.9 96 0.3 W 19 30 10 16 - - 0.2
17/09:30am 5.4 1.8 5.0 97 0.2 W 13 22 7 12 - - 0.0
17/09:00am 5.3 2.1 5.0 98 0.1 W 11 20 6 11 - - 3.4
17/08:30am 5.2 2.0 4.9 98 0.1 WNW 11 19 6 10 - - 3.2
17/08:00am 5.1 2.2 4.7 97 0.2 WNW 9 17 5 9 - - 3.2
17/07:30am 5.1 1.7 4.2 94 0.4 WNW 11 19 6 10 - - 3.2
17/07:00am 4.9 1.5 4.2 95 0.3 W 11 19 6 10 - - 3.2
17/06:30am 4.8 1.4 4.1 95 0.3 W 11 20 6 11 - - 3.2
17/06:00am 4.7 0.6 4.1 96 0.3 WNW 15 22 8 12 - - 3.2
17/05:30am 5.1 2.2 4.4 95 0.3 W 9 19 5 10 - - 3.2
17/05:00am 5.3 2.0 4.6 95 0.3 W 11 19 6 10 - - 3.2
17/04:30am 5.4 1.3 4.5 94 0.4 W 15 24 8 13 - - 3.2
17/04:00am 5.7 2.0 4.7 93 0.4 W 13 22 7 12 - - 3.0
17/03:30am 5.7 2.4 4.8 94 0.4 W 11 19 6 10 - - 3.0
17/03:00am 5.8 2.9 4.9 94 0.4 W 9 17 5 9 - - 3.0
17/02:30am 5.7 3.4 4.8 94 0.4 WNW 6 13 3 7 - - 3.0
17/02:00am 5.3 3.3 4.6 95 0.3 NW 4 7 2 4 - - 3.0
17/01:30am 5.2 3.7 4.8 97 0.2 NNE 2 6 1 3 - - 3.0
17/01:00am 4.8 3.1 4.2 96 0.3 NW 2 6 1 3 - - 3.0
17/12:30am 5.0 2.7 4.6 97 0.2 N 6 7 3 4 - - 3.0
17/12:00am 5.1 2.6 4.7 97 0.2 N 7 9 4 5 - - 3.0
 
Date/Time
EST
Temp
°C
App
Temp
°C
Dew
Point
°C
Rel
Hum
%
Delta-T
°C
Wind Press
QNH
hPa
Press
MSL
hPa
Rain since
9am
mm
Dir  Spd
km/h
Gust
km/h
Spd
kts
Gust
kts
16/11:30pm 5.5 3.3 5.2 98 0.1 N 6 9 3 5 - - 3.0
16/11:00pm 5.4 3.5 5.0 97 0.2 NNW 4 6 2 3 - - 3.0
16/10:30pm 5.7 3.5 5.1 96 0.3 NW 6 9 3 5 - - 3.0
16/10:00pm 6.2 3.9 5.5 95 0.3 NW 7 13 4 7 - - 3.0
16/09:30pm 6.5 4.3 5.5 93 0.4 WNW 6 9 3 5 - - 3.0
16/09:00pm 6.8 4.1 5.4 91 0.6 W 9 15 5 8 - - 3.0
16/08:30pm 7.0 4.7 5.8 92 0.5 W 7 13 4 7 - - 3.0
16/08:00pm 6.7 5.0 6.0 95 0.3 W 4 7 2 4 - - 3.0
16/07:30pm 7.1 5.0 6.0 93 0.5 W 6 11 3 6 - - 3.0
16/07:00pm 7.2 5.2 6.1 93 0.5 W 6 9 3 5 - - 3.0
16/06:30pm 7.4 4.8 6.0 91 0.6 W 9 17 5 9 - - 3.0
16/06:00pm 7.3 5.1 6.4 94 0.4 W 7 13 4 7 - - 3.0
16/05:30pm 7.3 4.7 6.2 93 0.5 NW 9 13 5 7 - - 3.0
16/05:00pm 7.0 4.7 5.9 93 0.5 NNW 7 9 4 5 - - 3.0
16/04:30pm 7.2 5.0 6.0 92 0.5 WNW 7 13 4 7 - - 3.0
16/04:00pm 7.3 3.1 5.9 91 0.6 NW 17 30 9 16 - - 2.4
16/03:30pm 8.7 5.8 6.5 86 1.0 NW 11 17 6 9 - - 1.0
16/03:00pm 9.3 5.5 6.0 80 1.5 NW 15 26 8 14 - - 1.0
16/02:30pm 9.5 5.7 5.7 77 1.8 NW 15 24 8 13 - - 1.0
16/02:00pm 9.5 5.4 6.4 81 1.5 NW 17 26 9 14 - - 1.0
16/01:30pm 8.3 4.4 7.2 93 0.5 NNW 17 26 9 14 - - 1.0
16/01:00pm 8.8 4.8 6.6 86 1.0 NW 17 28 9 15 - - 0.4
16/12:30pm 9.2 6.4 7.0 86 1.0 NW 11 19 6 10 - - 0.4
16/12:00pm 9.1 6.4 7.2 88 0.9 NNW 11 15 6 8 - - 0.4
16/11:30am 9.5 7.4 6.6 82 1.4 NNW 7 13 4 7 - - 0.0

Other Formats:

Comma delimited format used in spreadsheet applications
http://www.bom.gov.au/fwo/IDN60801/IDN60801.94944.axf

JavaScript Object Notation format (JSON) in row-major order
http://www.bom.gov.au/fwo/IDN60801/IDN60801.94944.json